createdAt,value
2018-09-04T00:02:18.533Z,66.17
2018-09-04T00:04:47.301Z,71.60
2018-09-04T00:07:19.642Z,82.87
2018-09-04T00:09:48.808Z,68.83
2018-09-04T00:12:17.456Z,99.70
2018-09-04T00:14:46.260Z,65.90
2018-09-04T00:17:14.878Z,71.97
2018-09-04T00:19:43.703Z,65.13
2018-09-04T00:22:12.440Z,71.53
2018-09-04T00:24:41.117Z,67.47
2018-09-04T00:27:09.776Z,93.03
2018-09-04T00:29:38.714Z,78.27
2018-09-04T00:32:07.645Z,57.47
2018-09-04T00:34:36.348Z,64.70
2018-09-04T00:37:05.124Z,68.43
2018-09-04T00:39:36.708Z,63.60
2018-09-04T00:42:05.417Z,62.53
2018-09-04T00:44:34.271Z,91.37
2018-09-04T00:47:06.691Z,80.87
2018-09-04T00:49:35.484Z,83.27
2018-09-04T00:52:04.264Z,84.67
2018-09-04T00:54:32.994Z,79.97
2018-09-04T00:57:02.629Z,79.03
2018-09-04T00:59:34.206Z,76.77
2018-09-04T01:02:02.915Z,79.77
2018-09-04T01:04:31.558Z,60.50
2018-09-04T01:07:00.304Z,68.07
2018-09-04T01:09:29.069Z,68.20
2018-09-04T01:11:57.708Z,74.40
2018-09-04T01:14:26.404Z,100.50
2018-09-04T01:16:54.936Z,102.63
2018-09-04T01:19:23.572Z,101.60
2018-09-04T01:21:52.175Z,84.23
2018-09-04T01:24:20.835Z,86.00
2018-09-04T01:26:49.348Z,80.50
2018-09-04T01:29:18.048Z,83.73
2018-09-04T01:31:46.680Z,79.47
2018-09-04T01:34:15.378Z,81.83
2018-09-04T01:36:43.945Z,77.83
2018-09-04T01:39:12.579Z,72.83
2018-09-04T01:41:41.232Z,71.83
2018-09-04T01:44:09.852Z,96.10
2018-09-04T01:46:38.401Z,81.27
2018-09-04T01:49:07.094Z,78.40
2018-09-04T01:51:35.736Z,76.27
2018-09-04T01:54:04.300Z,72.63
2018-09-04T01:56:32.955Z,69.90
2018-09-04T01:59:01.616Z,61.30
2018-09-04T02:01:30.323Z,66.10
2018-09-04T02:03:58.979Z,57.87
2018-09-04T02:06:27.658Z,63.57
2018-09-04T02:08:56.340Z,73.20
2018-09-04T02:11:25.027Z,65.27
2018-09-04T02:13:53.710Z,63.10
2018-09-04T02:16:22.315Z,66.27
2018-09-04T02:18:51.004Z,59.50
2018-09-04T02:21:19.656Z,67.27
2018-09-04T02:23:48.206Z,71.77
2018-09-04T02:26:16.731Z,67.40
2018-09-04T02:28:45.391Z,80.40
2018-09-04T02:31:13.905Z,75.50
2018-09-04T02:33:42.481Z,58.90
2018-09-04T02:36:11.136Z,83.03
2018-09-04T02:38:39.696Z,78.83
2018-09-04T02:41:08.676Z,72.73
2018-09-04T02:43:37.280Z,74.00
2018-09-04T02:46:06.036Z,61.53
2018-09-04T02:48:34.549Z,64.63
2018-09-04T02:51:03.203Z,69.07
2018-09-04T02:53:31.862Z,73.90
2018-09-04T02:56:00.661Z,71.63
2018-09-04T02:58:29.349Z,62.00
2018-09-04T03:00:57.971Z,62.03
2018-09-04T03:03:26.638Z,88.57
2018-09-04T03:05:55.261Z,66.27
2018-09-04T03:08:23.795Z,71.93
2018-09-04T03:10:52.472Z,63.87
2018-09-04T03:13:21.167Z,60.30
2018-09-04T03:15:49.787Z,78.43
2018-09-04T03:18:19.527Z,63.40
2018-09-04T03:20:48.057Z,73.93
2018-09-04T03:23:16.809Z,70.30
2018-09-04T03:25:45.471Z,102.30
2018-09-04T03:28:14.041Z,74.47
2018-09-04T03:30:42.821Z,73.47
2018-09-04T03:33:11.651Z,67.53
2018-09-04T03:35:40.326Z,78.77
2018-09-04T03:38:08.873Z,67.33
2018-09-04T03:40:37.579Z,81.83
2018-09-04T03:43:07.197Z,68.00
2018-09-04T03:45:35.942Z,73.57
2018-09-04T03:48:04.816Z,69.43
2018-09-04T03:50:33.337Z,69.67
2018-09-04T03:53:01.960Z,79.77
2018-09-04T03:55:30.700Z,108.73
2018-09-04T03:57:59.282Z,87.90
2018-09-04T04:00:27.897Z,66.83
2018-09-04T04:02:56.705Z,75.53
2018-09-04T04:05:25.304Z,77.70
2018-09-04T04:07:54.038Z,85.37
2018-09-04T04:10:22.835Z,91.23
2018-09-04T04:12:51.510Z,84.87
2018-09-04T04:15:20.133Z,74.03
2018-09-04T04:17:48.710Z,78.77
2018-09-04T04:20:17.351Z,89.47
2018-09-04T04:22:46.555Z,124.50
2018-09-04T04:25:15.240Z,128.23
2018-09-04T04:27:43.831Z,98.30
2018-09-04T04:30:12.474Z,75.63
2018-09-04T04:32:41.078Z,90.87
2018-09-04T04:35:09.763Z,80.70
2018-09-04T04:37:38.304Z,76.70
2018-09-04T04:40:07.412Z,90.50
2018-09-04T04:42:36.064Z,92.67
2018-09-04T04:45:04.802Z,83.53
2018-09-04T04:47:38.681Z,73.17
2018-09-04T04:50:07.524Z,79.57
2018-09-04T04:52:36.177Z,90.87
2018-09-04T04:55:04.976Z,70.20
2018-09-04T04:57:33.598Z,80.23
2018-09-04T05:00:02.239Z,80.80
2018-09-04T05:02:30.968Z,88.70
2018-09-04T05:04:59.774Z,95.80
2018-09-04T05:07:28.450Z,91.30
2018-09-04T05:09:57.195Z,91.80
2018-09-04T05:12:25.978Z,98.63
2018-09-04T05:14:54.709Z,87.37
2018-09-04T05:17:23.344Z,105.23
2018-09-04T05:19:51.954Z,115.90
2018-09-04T05:22:20.630Z,98.90
2018-09-04T05:24:49.333Z,95.17
2018-09-04T05:27:18.102Z,114.37
2018-09-04T05:29:46.871Z,88.17
2018-09-04T05:32:20.709Z,126.10
2018-09-04T05:34:49.417Z,103.33
2018-09-04T05:37:18.213Z,107.77
2018-09-04T05:39:46.880Z,113.93
2018-09-04T05:42:20.736Z,103.10
2018-09-04T05:44:49.457Z,93.97
2018-09-04T05:47:18.252Z,99.83
2018-09-04T05:49:46.910Z,120.00
2018-09-04T05:52:16.477Z,107.17
2018-09-04T05:54:45.174Z,112.23
2018-09-04T05:57:13.921Z,104.83
2018-09-04T05:59:42.597Z,113.97
2018-09-04T06:02:11.380Z,110.67
2018-09-04T06:04:40.106Z,113.73
2018-09-04T06:07:08.787Z,117.80
2018-09-04T06:12:44.662Z,93.97
2018-09-04T06:15:13.939Z,123.77
2018-09-04T06:17:43.171Z,118.23
2018-09-04T06:20:12.792Z,101.07
2018-09-04T06:22:41.991Z,126.63
2018-09-04T06:25:11.459Z,104.70
2018-09-04T06:27:40.719Z,132.10
2018-09-04T06:30:10.182Z,113.73
2018-09-04T06:32:39.441Z,123.80
2018-09-04T06:35:08.864Z,108.10
2018-09-04T06:37:38.158Z,96.93
2018-09-04T06:40:07.668Z,102.77
2018-09-04T06:42:36.978Z,102.27
2018-09-04T06:45:06.381Z,111.27
2018-09-04T06:48:05.783Z,95.20
2018-09-04T06:50:49.730Z,89.50
2018-09-04T06:53:19.377Z,98.87
2018-09-04T06:56:14.478Z,89.33
2018-09-04T07:02:24.208Z,89.60
2018-09-04T07:04:53.635Z,83.63
2018-09-04T07:07:23.025Z,90.23
2018-09-04T07:10:00.194Z,91.60
2018-09-04T07:12:30.139Z,88.17
2018-09-04T07:15:03.979Z,95.97
2018-09-04T07:17:33.390Z,96.20
2018-09-04T07:20:04.036Z,87.93
2018-09-04T07:22:33.541Z,91.90
2018-09-04T07:25:02.930Z,70.73
2018-09-04T07:27:33.283Z,101.87
2018-09-04T07:30:12.581Z,96.37
2018-09-04T07:32:41.926Z,90.47
2018-09-04T07:35:11.074Z,98.13
2018-09-04T07:37:40.672Z,66.57
2018-09-04T07:40:10.062Z,75.70
2018-09-04T07:42:39.439Z,75.57
2018-09-04T07:45:09.719Z,75.00
2018-09-04T07:47:38.922Z,93.93
2018-09-04T07:50:09.243Z,75.93
2018-09-04T07:52:38.590Z,75.93
2018-09-04T07:55:08.211Z,82.97
2018-09-04T07:57:37.545Z,78.47
2018-09-04T08:00:07.639Z,77.87
2018-09-04T08:02:36.919Z,69.93
2018-09-04T08:05:06.427Z,74.10
2018-09-04T08:07:35.738Z,70.97
2018-09-04T08:10:05.113Z,61.90
2018-09-04T08:12:34.333Z,73.23
2018-09-04T08:15:03.656Z,82.10
2018-09-04T08:17:32.950Z,60.10
2018-09-04T08:20:02.378Z,53.90
2018-09-04T08:22:31.711Z,76.67
2018-09-04T08:25:00.947Z,58.67
2018-09-04T08:27:30.160Z,65.70
2018-09-04T08:29:59.491Z,57.83
2018-09-04T08:32:28.722Z,64.77
2018-09-04T08:34:57.907Z,86.53
2018-09-04T08:37:27.249Z,68.00
2018-09-04T08:39:56.498Z,66.93
2018-09-04T08:42:25.800Z,80.17
2018-09-04T08:44:55.171Z,61.53
2018-09-04T08:47:24.384Z,66.67
2018-09-04T08:49:53.775Z,73.17
2018-09-04T08:52:23.034Z,58.03
2018-09-04T08:54:52.441Z,77.83
2018-09-04T08:57:21.774Z,53.67
2018-09-04T08:59:50.978Z,79.67
2018-09-04T09:02:20.198Z,70.00
2018-09-04T09:04:49.366Z,59.67
2018-09-04T09:07:18.691Z,54.70
2018-09-04T09:09:47.894Z,58.33
2018-09-04T09:12:17.136Z,58.30
2018-09-04T09:14:46.346Z,60.87
2018-09-04T09:17:15.512Z,52.60
2018-09-04T09:19:44.683Z,47.40
2018-09-04T09:22:13.899Z,56.27
2018-09-04T09:24:43.118Z,53.30
2018-09-04T09:27:13.759Z,50.77
2018-09-04T09:29:42.965Z,52.27
2018-09-04T09:32:12.162Z,51.77
2018-09-04T09:34:41.538Z,70.30
2018-09-04T09:37:10.869Z,66.23
2018-09-04T09:39:40.193Z,59.53
2018-09-04T09:42:12.771Z,56.73
2018-09-04T09:44:43.958Z,57.70
2018-09-04T09:47:13.214Z,59.07
2018-09-04T09:49:42.583Z,51.27
2018-09-04T09:52:11.860Z,46.73
2018-09-04T09:54:41.015Z,55.40
2018-09-04T09:57:10.201Z,58.73
2018-09-04T09:59:39.487Z,53.93
2018-09-04T10:02:13.666Z,42.73
2018-09-04T10:04:43.062Z,58.20
2018-09-04T10:07:12.415Z,47.00
2018-09-04T10:09:41.827Z,46.73
2018-09-04T10:12:11.294Z,50.20
2018-09-04T10:14:40.538Z,51.23
2018-09-04T10:17:09.946Z,51.43
2018-09-04T10:19:39.157Z,41.27
2018-09-04T10:22:08.481Z,54.13
2018-09-04T10:24:37.826Z,45.10
2018-09-04T10:27:07.231Z,44.27
2018-09-04T10:29:36.441Z,59.90
2018-09-04T10:32:05.816Z,82.87
2018-09-04T10:34:34.969Z,73.37
2018-09-04T10:37:04.263Z,49.97
2018-09-04T10:39:38.649Z,55.20
2018-09-04T10:42:07.977Z,53.47
2018-09-04T10:44:37.222Z,62.87
2018-09-04T10:47:06.516Z,64.43
2018-09-04T10:49:35.735Z,46.27
2018-09-04T10:52:04.998Z,44.03
2018-09-04T10:54:34.399Z,37.60
2018-09-04T10:57:03.646Z,26.93
2018-09-04T10:59:32.882Z,48.77
2018-09-04T11:02:02.166Z,67.63
2018-09-04T11:04:31.534Z,35.80
2018-09-04T11:07:00.710Z,37.03
2018-09-04T11:09:30.185Z,32.73
2018-09-04T11:11:59.606Z,30.57
2018-09-04T11:14:28.774Z,37.40
2018-09-04T11:16:58.114Z,33.97
2018-09-04T11:19:27.418Z,42.33
2018-09-04T11:21:57.846Z,33.30
2018-09-04T11:24:27.078Z,32.50
2018-09-04T11:26:56.401Z,29.77
2018-09-04T11:29:25.590Z,27.67
2018-09-04T11:31:54.974Z,38.47
2018-09-04T11:34:24.129Z,46.63
2018-09-04T11:36:53.454Z,30.73
2018-09-04T11:39:22.750Z,41.80
2018-09-04T11:41:52.122Z,64.53
2018-09-04T11:44:21.305Z,41.03
2018-09-04T11:46:50.570Z,44.00
2018-09-04T11:49:19.785Z,60.70
2018-09-04T11:51:49.098Z,38.07
2018-09-04T11:54:18.417Z,27.23
2018-09-04T11:56:47.761Z,40.27
2018-09-04T11:59:17.060Z,29.67
2018-09-04T12:01:49.849Z,37.53
2018-09-04T12:04:19.179Z,28.37
2018-09-04T12:06:48.407Z,24.43
2018-09-04T12:09:17.843Z,30.20
2018-09-04T12:11:51.227Z,24.23
2018-09-04T12:14:20.955Z,38.17
2018-09-04T12:16:50.647Z,27.07
2018-09-04T12:19:19.899Z,49.47
2018-09-04T12:21:49.377Z,27.90
2018-09-04T12:24:18.649Z,34.43
2018-09-04T12:26:48.005Z,33.40
2018-09-04T12:29:17.199Z,26.80
2018-09-04T12:31:46.574Z,44.33
2018-09-04T12:34:15.926Z,44.13
2018-09-04T12:36:45.135Z,22.37
2018-09-04T12:39:14.346Z,30.03
2018-09-04T12:41:43.692Z,29.27
2018-09-04T12:44:12.942Z,30.87
2018-09-04T12:46:42.251Z,31.93
2018-09-04T12:49:11.489Z,20.57
2018-09-04T12:51:40.924Z,25.20
2018-09-04T12:54:10.114Z,33.97
2018-09-04T12:56:39.398Z,30.17
2018-09-04T12:59:08.674Z,40.70
2018-09-04T13:01:37.988Z,34.37
2018-09-04T13:04:07.233Z,27.97
2018-09-04T13:06:36.466Z,41.53
2018-09-04T13:09:07.171Z,36.83
2018-09-04T13:11:36.437Z,32.10
2018-09-04T13:14:06.335Z,20.50
2018-09-04T13:16:35.682Z,24.17
2018-09-04T13:19:04.974Z,18.37
2018-09-04T13:21:34.205Z,27.63
2018-09-04T13:24:03.449Z,14.57
2018-09-04T13:26:32.805Z,15.70
2018-09-04T13:29:02.035Z,15.50
2018-09-04T13:31:31.308Z,17.77
2018-09-04T13:34:00.720Z,23.92
2018-09-04T13:36:30.205Z,16.93
2018-09-04T13:38:59.367Z,26.87
2018-09-04T13:41:32.666Z,28.05
2018-09-04T13:44:02.011Z,18.12
2018-09-04T13:46:31.293Z,32.48
2018-09-04T13:49:00.645Z,18.52
2018-09-04T13:51:29.886Z,19.75
2018-09-04T13:53:59.353Z,24.57
2018-09-04T13:56:28.530Z,19.37
2018-09-04T13:58:57.845Z,18.57
2018-09-04T14:01:27.189Z,17.60
2018-09-04T14:03:56.583Z,16.37
2018-09-04T14:06:25.832Z,17.92
2018-09-04T14:08:55.086Z,19.57
2018-09-04T14:11:24.443Z,17.25
2018-09-04T14:13:53.748Z,15.93
2018-09-04T14:16:24.968Z,13.38
2018-09-04T14:18:54.163Z,15.13
2018-09-04T14:21:23.387Z,14.73
2018-09-04T14:23:52.679Z,20.55
2018-09-04T14:26:21.937Z,17.32
2018-09-04T14:29:06.422Z,15.48
2018-09-04T14:31:20.514Z,29.45
2018-09-04T14:33:49.858Z,14.23
2018-09-04T14:36:19.181Z,14.45
2018-09-04T14:38:48.406Z,21.70
2018-09-04T14:41:17.769Z,19.07
2018-09-04T14:43:48.015Z,14.35
2018-09-04T14:46:17.262Z,16.05
2018-09-04T14:48:46.650Z,20.40
2018-09-04T14:51:16.017Z,29.57
2018-09-04T14:53:46.473Z,17.95
2018-09-04T14:56:15.674Z,19.02
2018-09-04T14:58:44.942Z,15.08
2018-09-04T15:01:14.139Z,13.83
2018-09-04T15:03:43.594Z,13.93
2018-09-04T15:06:12.853Z,14.10
2018-09-04T15:08:42.293Z,39.33
2018-09-04T15:11:11.566Z,25.65
2018-09-04T15:13:41.108Z,18.65
2018-09-04T15:16:10.371Z,21.17
2018-09-04T15:18:39.694Z,19.97
2018-09-04T15:21:08.990Z,21.83
2018-09-04T15:23:38.293Z,17.77
2018-09-04T15:26:07.830Z,19.07
2018-09-04T15:28:36.999Z,19.80
2018-09-04T15:31:06.563Z,26.17
2018-09-04T15:33:35.942Z,22.87
2018-09-04T15:36:05.334Z,30.10
2018-09-04T15:38:34.632Z,29.53
2018-09-04T15:42:19.498Z,25.47
2018-09-04T15:44:48.797Z,34.30
2018-09-04T15:47:17.971Z,41.03
2018-09-04T15:49:48.522Z,38.33
2018-09-04T15:52:18.246Z,30.13
2018-09-04T15:54:47.521Z,26.43
2018-09-04T15:57:16.767Z,23.50
2018-09-04T15:59:45.947Z,21.90
2018-09-04T16:02:15.214Z,26.50
2018-09-04T16:04:44.534Z,28.53
2018-09-04T16:07:13.822Z,28.50
2018-09-04T16:09:43.287Z,27.17
2018-09-04T16:12:12.514Z,20.50
2018-09-04T16:14:41.869Z,35.80
2018-09-04T16:17:11.327Z,18.30
2018-09-04T16:19:40.601Z,24.23
2018-09-04T16:22:09.821Z,19.17
2018-09-04T16:24:38.969Z,16.07
2018-09-04T16:27:08.213Z,17.17
2018-09-04T16:29:37.517Z,17.60
2018-09-04T16:32:06.902Z,21.93
2018-09-04T16:34:36.242Z,18.23
2018-09-04T16:37:05.534Z,15.70
2018-09-04T16:39:34.883Z,16.67
2018-09-04T16:42:04.079Z,15.87
2018-09-04T16:44:33.348Z,17.13
2018-09-04T16:47:02.638Z,10.23
2018-09-04T16:49:31.846Z,10.13
2018-09-04T16:52:01.849Z,21.30
2018-09-04T16:54:31.280Z,18.00
2018-09-04T16:57:00.576Z,18.87
2018-09-04T16:59:30.003Z,24.73
2018-09-04T17:01:59.160Z,16.40
2018-09-04T17:04:28.459Z,19.23
2018-09-04T17:06:57.731Z,13.07
2018-09-04T17:09:26.974Z,14.07
2018-09-04T17:11:56.260Z,16.30
2018-09-04T17:14:25.399Z,19.03
2018-09-04T17:16:54.745Z,13.73
2018-09-04T17:19:24.081Z,19.70
2018-09-04T17:21:53.465Z,26.33
2018-09-04T17:24:22.654Z,25.03
2018-09-04T17:26:52.034Z,19.77
2018-09-04T17:29:21.289Z,27.27
2018-09-04T17:31:50.485Z,32.43
2018-09-04T17:34:19.753Z,38.87
2018-09-04T17:36:48.989Z,28.53
2018-09-04T17:39:18.276Z,25.03
2018-09-04T17:41:47.630Z,30.97
2018-09-04T17:44:16.814Z,20.23
2018-09-04T17:46:46.068Z,29.40
2018-09-04T17:49:15.304Z,27.60
2018-09-04T17:51:44.602Z,19.13
2018-09-04T17:54:13.882Z,23.63
2018-09-04T17:56:43.178Z,19.27
2018-09-04T17:59:12.442Z,18.73
2018-09-04T18:01:41.664Z,30.13
2018-09-04T18:04:10.858Z,21.90
2018-09-04T18:06:40.015Z,40.37
2018-09-04T18:09:09.567Z,40.53
2018-09-04T18:11:38.717Z,19.97
2018-09-04T18:14:08.054Z,28.60
2018-09-04T18:16:37.337Z,25.57
2018-09-04T18:19:06.662Z,23.70
2018-09-04T18:21:36.102Z,18.60
2018-09-04T18:24:05.506Z,19.70
2018-09-04T18:26:34.764Z,20.80
2018-09-04T18:29:03.990Z,32.03
2018-09-04T18:31:33.360Z,20.57
2018-09-04T18:34:02.559Z,18.60
2018-09-04T18:36:31.785Z,21.27
2018-09-04T18:39:01.058Z,18.53
2018-09-04T18:41:30.415Z,21.47
2018-09-04T18:43:59.701Z,24.80
2018-09-04T18:46:28.958Z,27.13
2018-09-04T18:48:58.292Z,22.97
2018-09-04T18:51:27.747Z,20.57
2018-09-04T18:53:57.726Z,23.50
2018-09-04T18:56:27.145Z,24.30
2018-09-04T18:58:56.419Z,27.23
2018-09-04T19:01:25.682Z,19.80
2018-09-04T19:03:55.045Z,22.70
2018-09-04T19:06:24.294Z,26.93
2018-09-04T19:08:53.538Z,29.37
2018-09-04T19:11:22.846Z,28.17
2018-09-04T19:13:51.982Z,28.53
2018-09-04T19:16:21.175Z,29.53
2018-09-04T19:18:50.498Z,33.77
2018-09-04T19:21:19.865Z,23.87
2018-09-04T19:23:49.236Z,21.83
2018-09-04T19:26:18.482Z,23.57
2018-09-04T19:28:47.890Z,25.63
2018-09-04T19:31:17.161Z,22.63
2018-09-04T19:33:46.496Z,20.53
2018-09-04T19:36:15.696Z,18.87
2018-09-04T19:38:44.966Z,28.40
2018-09-04T19:41:14.183Z,32.20
2018-09-04T19:43:43.498Z,29.67
2018-09-04T19:46:12.641Z,23.60
2018-09-04T19:48:41.891Z,19.10
2018-09-04T19:51:11.088Z,18.10
2018-09-04T19:53:40.330Z,26.37
2018-09-04T19:56:09.687Z,20.57
2018-09-04T19:58:38.998Z,24.13
2018-09-04T20:01:08.240Z,27.23
2018-09-04T20:03:37.571Z,25.67
2018-09-04T20:06:06.741Z,30.23
2018-09-04T20:08:36.003Z,23.90
2018-09-04T20:11:05.170Z,24.47
2018-09-04T20:13:34.360Z,32.67
2018-09-04T20:16:03.681Z,30.20
2018-09-04T20:18:32.914Z,25.83
2018-09-04T20:21:02.235Z,26.57
2018-09-04T20:23:31.527Z,30.70
2018-09-04T20:26:00.713Z,25.97
2018-09-04T20:28:29.966Z,33.20
2018-09-04T20:30:59.112Z,32.13
2018-09-04T20:33:28.298Z,30.83
2018-09-04T20:35:57.597Z,33.23
2018-09-04T20:38:26.733Z,39.67
2018-09-04T20:40:55.950Z,33.47
2018-09-04T20:43:25.386Z,31.07
2018-09-04T20:45:54.521Z,45.23
2018-09-04T20:48:23.666Z,34.90
2018-09-04T20:50:53.007Z,33.17
2018-09-04T20:53:22.214Z,42.57
2018-09-04T20:55:51.513Z,42.73
2018-09-04T20:58:31.978Z,30.00
2018-09-04T21:01:11.870Z,39.67
2018-09-04T21:03:52.053Z,39.30
2018-09-04T21:06:32.014Z,52.23
2018-09-04T21:09:07.265Z,37.40
2018-09-04T21:11:36.506Z,55.43
2018-09-04T21:14:05.846Z,41.47
2018-09-04T21:16:35.093Z,47.63
2018-09-04T21:19:04.338Z,31.30
2018-09-04T21:21:33.618Z,47.10
2018-09-04T21:24:02.841Z,31.93
2018-09-04T21:26:32.048Z,38.93
2018-09-04T21:29:01.588Z,32.97
2018-09-04T21:31:30.926Z,51.77
2018-09-04T21:34:00.038Z,38.87
2018-09-04T21:36:29.416Z,34.80
2018-09-04T21:38:58.741Z,38.60
2018-09-04T21:41:28.012Z,35.67
2018-09-04T21:43:57.284Z,32.67
2018-09-04T21:46:26.494Z,29.90
2018-09-04T21:48:55.701Z,29.63
2018-09-04T21:51:24.983Z,37.53
2018-09-04T21:53:54.064Z,48.00
2018-09-04T21:56:23.318Z,41.50
2018-09-04T21:58:52.526Z,49.47
2018-09-04T22:01:21.720Z,49.27
2018-09-04T22:03:51.018Z,40.10
2018-09-04T22:06:20.183Z,46.07
2018-09-04T22:08:49.654Z,32.00
2018-09-04T22:11:18.914Z,57.03
2018-09-04T22:13:48.134Z,39.67
2018-09-04T22:16:17.457Z,41.07
2018-09-04T22:18:46.855Z,40.57
2018-09-04T22:21:16.269Z,44.40
2018-09-04T22:23:45.362Z,55.13
2018-09-04T22:26:14.556Z,40.93
2018-09-04T22:28:43.659Z,42.10
2018-09-04T22:31:13.019Z,45.67
2018-09-04T22:33:42.263Z,39.33
2018-09-04T22:36:11.489Z,51.13
2018-09-04T22:38:40.619Z,47.77
2018-09-04T22:41:09.765Z,35.13
2018-09-04T22:43:39.008Z,36.43
2018-09-04T22:46:08.470Z,36.40
2018-09-04T22:48:37.716Z,47.17
2018-09-04T22:51:12.030Z,43.63
2018-09-04T22:53:41.201Z,38.70
2018-09-04T22:56:10.507Z,40.40
2018-09-04T22:58:39.658Z,45.63
2018-09-04T23:01:08.776Z,63.13
2018-09-04T23:03:37.908Z,38.33
2018-09-04T23:06:07.193Z,55.93
2018-09-04T23:08:36.342Z,47.03
2018-09-04T23:11:05.572Z,40.67
2018-09-04T23:13:34.794Z,40.33
2018-09-04T23:16:04.106Z,35.20
2018-09-04T23:18:33.203Z,40.20
2018-09-04T23:21:02.342Z,34.47
2018-09-04T23:23:31.574Z,35.60
2018-09-04T23:26:00.858Z,44.50
2018-09-04T23:28:29.945Z,34.80
2018-09-04T23:30:59.333Z,41.70
2018-09-04T23:33:28.607Z,37.33
2018-09-04T23:35:57.830Z,35.83
2018-09-04T23:38:26.991Z,48.43
2018-09-04T23:40:56.210Z,52.20
2018-09-04T23:43:25.415Z,51.03
2018-09-04T23:45:54.668Z,37.90
2018-09-04T23:48:23.911Z,46.03
2018-09-04T23:50:53.311Z,40.00
2018-09-04T23:53:22.545Z,46.67
2018-09-04T23:55:51.741Z,43.77
2018-09-04T23:58:21.087Z,36.43
